Time;durP1;ratioP1;P1;durP2;ratioP2;P2;SDS_P1;SDS_P2;PMS_P1;PMS_P2;Temp;Humidity;BMP_temperature;BMP_pressure;BME280_temperature;BME280_humidity;BME280_pressure;Samples;Min_cycle;Max_cycle;Signal;HPM_P1;HPM_P2
2022/08/17 00:01:21;;;;;;;36.05;28.02;;;20.70;99.90;;;;;;5020815;28;20120;-59
2022/08/17 00:03:48;;;;;;;32.90;25.95;;;20.70;99.90;;;;;;5022058;28;20085;-59
2022/08/17 00:06:21;;;;;;;31.83;25.73;;;20.70;99.90;;;;;;5037261;28;20041;-60
2022/08/17 00:08:50;;;;;;;35.83;29.67;;;20.70;99.90;;;;;;5022255;28;20500;-60
2022/08/17 00:11:27;;;;;;;34.72;28.23;;;20.70;99.90;;;;;;5024456;28;20072;-60
2022/08/17 00:13:57;;;;;;;36.88;28.85;;;20.60;99.90;;;;;;5023280;28;20622;-61
2022/08/17 00:16:25;;;;;;;32.63;27.33;;;20.60;99.90;;;;;;5022744;28;20587;-60
2022/08/17 00:18:51;;;;;;;37.13;29.33;;;20.50;99.90;;;;;;5022815;28;20052;-59
2022/08/17 00:21:21;;;;;;;34.15;27.45;;;20.50;99.90;;;;;;5021153;28;20046;-61
2022/08/17 00:23:48;;;;;;;40.63;29.42;;;20.50;99.90;;;;;;5005264;28;20069;-59
2022/08/17 00:26:14;;;;;;;30.27;25.52;;;20.40;99.90;;;;;;5020859;28;20050;-59
2022/08/17 00:28:40;;;;;;;35.85;27.75;;;20.40;99.90;;;;;;5022591;28;20511;-60
2022/08/17 00:31:08;;;;;;;28.98;24.73;;;20.40;99.90;;;;;;5021424;28;20191;-59
2022/08/17 00:33:36;;;;;;;34.75;27.48;;;20.40;99.90;;;;;;5020886;28;20111;-60
2022/08/17 00:36:04;;;;;;;34.90;28.52;;;20.30;99.90;;;;;;5021392;28;20059;-60
2022/08/17 00:38:32;;;;;;;33.45;26.40;;;20.30;99.90;;;;;;5024252;28;20037;-60
2022/08/17 00:41:04;;;;;;;32.78;26.48;;;20.30;99.90;;;;;;5020624;28;20049;-60
2022/08/17 00:43:38;;;;;;;34.45;27.23;;;20.30;99.90;;;;;;5022735;28;20041;-60
2022/08/17 00:46:09;;;;;;;31.92;25.80;;;20.20;99.90;;;;;;5021850;28;20048;-60
2022/08/17 00:48:36;;;;;;;31.40;25.33;;;20.20;99.90;;;;;;5019505;28;20041;-59
2022/08/17 00:51:25;;;;;;;35.85;27.58;;;20.20;99.90;;;;;;5020823;28;20088;-60
2022/08/17 00:54:07;;;;;;;35.38;25.85;;;20.20;99.90;;;;;;5012898;28;20542;-60
2022/08/17 00:56:44;;;;;;;28.73;24.17;;;20.20;99.90;;;;;;5023203;28;20041;-60
2022/08/17 00:59:13;;;;;;;31.63;26.23;;;20.20;99.90;;;;;;5019990;28;20605;-60
2022/08/17 01:01:40;;;;;;;29.95;24.42;;;20.20;99.90;;;;;;5021866;28;20048;-60
2022/08/17 01:04:07;;;;;;;31.17;25.48;;;20.20;99.90;;;;;;5022082;28;20049;-59
2022/08/17 01:06:33;;;;;;;28.55;23.80;;;20.20;99.90;;;;;;5017684;28;20439;-58
2022/08/17 01:09:00;;;;;;;31.17;25.17;;;20.20;99.90;;;;;;5021999;28;20076;-61
2022/08/17 01:11:29;;;;;;;32.03;26.13;;;20.20;99.90;;;;;;5023365;28;20099;-60
2022/08/17 01:13:55;;;;;;;35.13;26.65;;;20.20;99.90;;;;;;5021740;28;20053;-60
2022/08/17 01:16:27;;;;;;;32.60;25.90;;;20.20;99.90;;;;;;5021872;28;20049;-59
2022/08/17 01:18:59;;;;;;;33.75;26.80;;;20.10;99.90;;;;;;5021972;28;20113;-60
2022/08/17 01:21:37;;;;;;;33.10;24.40;;;20.10;99.90;;;;;;5036113;28;20111;-60
2022/08/17 01:24:03;;;;;;;30.65;25.80;;;20.10;99.90;;;;;;5022056;28;20539;-60
2022/08/17 01:26:31;;;;;;;32.85;26.30;;;20.00;99.90;;;;;;5022943;28;20104;-60
2022/08/17 01:28:58;;;;;;;31.35;25.88;;;19.90;99.90;;;;;;5020732;28;20045;-59
2022/08/17 01:31:30;;;;;;;29.23;24.92;;;19.90;99.90;;;;;;5036061;28;20049;-60
2022/08/17 01:34:03;;;;;;;37.88;27.67;;;19.90;99.90;;;;;;5020457;28;20049;-60
2022/08/17 01:36:29;;;;;;;27.90;24.35;;;19.90;99.90;;;;;;5019721;28;20041;-60
2022/08/17 01:38:55;;;;;;;29.45;24.38;;;19.80;99.90;;;;;;5037166;28;20396;-60
2022/08/17 01:41:23;;;;;;;27.75;22.25;;;19.80;99.90;;;;;;5019754;28;20495;-60
2022/08/17 01:43:57;;;;;;;27.45;23.58;;;19.80;99.90;;;;;;5020662;28;20510;-59
2022/08/17 01:46:26;;;;;;;24.73;21.60;;;19.80;99.90;;;;;;5003849;28;20053;-60
2022/08/17 01:48:54;;;;;;;23.73;20.35;;;19.80;99.90;;;;;;5018882;28;20123;-59
2022/08/17 01:51:20;;;;;;;24.90;20.58;;;19.70;99.90;;;;;;5020402;28;20527;-60
2022/08/17 01:53:50;;;;;;;20.85;18.52;;;19.70;99.90;;;;;;5021598;28;20056;-60
2022/08/17 01:56:19;;;;;;;24.17;20.30;;;19.70;99.90;;;;;;5020847;28;20057;-60
2022/08/17 01:58:45;;;;;;;22.98;19.58;;;19.70;99.90;;;;;;5020492;28;20120;-60
2022/08/17 02:01:13;;;;;;;20.73;17.20;;;19.70;99.90;;;;;;5018833;28;20048;-59
2022/08/17 02:03:40;;;;;;;22.70;19.98;;;19.60;99.90;;;;;;5019727;28;20041;-59
2022/08/17 02:06:06;;;;;;;23.00;20.05;;;19.60;99.90;;;;;;5021512;28;20041;-59
2022/08/17 02:08:34;;;;;;;25.13;20.63;;;19.60;99.90;;;;;;5020040;28;20069;-60
2022/08/17 02:11:06;;;;;;;21.17;17.13;;;19.50;99.90;;;;;;5021943;28;20034;-58
2022/08/17 02:13:32;;;;;;;20.67;17.92;;;19.50;99.90;;;;;;5019265;28;20041;-60
2022/08/17 02:15:59;;;;;;;21.77;19.48;;;19.40;99.90;;;;;;5022129;28;20033;-60
2022/08/17 02:18:25;;;;;;;20.17;18.00;;;19.40;99.90;;;;;;5003083;28;20473;-60
2022/08/17 02:20:52;;;;;;;21.15;17.85;;;19.40;99.90;;;;;;5019517;28;20041;-59
2022/08/17 02:23:20;;;;;;;20.15;17.27;;;19.30;99.90;;;;;;5003436;28;20049;-60
2022/08/17 02:25:47;;;;;;;20.25;18.17;;;19.20;99.90;;;;;;5020344;28;20468;-60
2022/08/17 02:28:13;;;;;;;18.92;16.42;;;19.20;99.90;;;;;;5019680;28;20041;-59
2022/08/17 02:30:40;;;;;;;19.42;17.35;;;19.10;99.90;;;;;;5018363;28;20315;-60
2022/08/17 02:33:07;;;;;;;16.67;14.95;;;19.10;99.90;;;;;;5018841;28;20518;-60
2022/08/17 02:35:35;;;;;;;17.60;15.40;;;19.00;99.90;;;;;;5020962;28;20075;-60
2022/08/17 02:38:01;;;;;;;19.23;16.00;;;19.00;99.90;;;;;;5021072;28;20126;-60
2022/08/17 02:40:27;;;;;;;16.33;14.63;;;19.00;99.90;;;;;;5019435;28;20077;-59
2022/08/17 02:42:53;;;;;;;16.63;14.82;;;19.00;99.90;;;;;;5020801;28;20646;-59
2022/08/17 02:45:21;;;;;;;18.20;16.15;;;19.00;99.90;;;;;;5021103;28;20038;-60
2022/08/17 02:47:48;;;;;;;16.80;15.05;;;19.00;99.90;;;;;;5018155;28;20056;-59
2022/08/17 02:50:17;;;;;;;18.02;15.43;;;18.90;99.90;;;;;;5019704;28;20587;-60
2022/08/17 02:52:45;;;;;;;20.75;16.42;;;18.90;99.90;;;;;;5018941;28;20107;-60
2022/08/17 02:55:18;;;;;;;19.83;16.35;;;18.90;99.90;;;;;;5021407;28;20503;-59
2022/08/17 02:57:44;;;;;;;25.90;20.48;;;18.90;99.90;;;;;;5009169;28;20065;-59
2022/08/17 03:00:20;;;;;;;31.90;22.80;;;18.90;99.90;;;;;;5027121;28;20156;-60
2022/08/17 03:02:46;;;;;;;39.63;27.50;;;18.80;99.90;;;;;;5026393;28;20033;-59
2022/08/17 03:05:15;;;;;;;37.40;26.35;;;18.80;99.90;;;;;;5025999;28;20128;-59
2022/08/17 03:07:41;;;;;;;36.88;25.00;;;18.90;99.90;;;;;;5027142;28;20045;-59
2022/08/17 03:10:08;;;;;;;42.63;29.17;;;18.90;99.90;;;;;;5025688;28;20037;-59
2022/08/17 03:12:37;;;;;;;42.22;29.30;;;18.90;99.90;;;;;;5025927;28;20500;-60
2022/08/17 03:15:06;;;;;;;41.85;28.05;;;19.00;99.90;;;;;;5025832;28;20107;-60
2022/08/17 03:17:32;;;;;;;39.00;27.95;;;19.00;99.90;;;;;;5026439;28;20084;-60
2022/08/17 03:19:58;;;;;;;47.50;30.05;;;19.00;99.90;;;;;;5026988;28;20049;-60
2022/08/17 03:22:25;;;;;;;36.45;27.50;;;19.00;99.90;;;;;;5026002;28;20128;-58
2022/08/17 03:24:51;;;;;;;42.60;28.20;;;19.00;99.90;;;;;;5025856;28;20037;-59
2022/08/17 03:27:17;;;;;;;37.50;27.08;;;19.00;99.90;;;;;;5025605;28;20048;-60
2022/08/17 03:29:43;;;;;;;41.90;27.13;;;19.00;99.90;;;;;;5024447;28;20038;-59
2022/08/17 03:32:14;;;;;;;102.13;28.00;;;19.00;99.90;;;;;;5027119;28;20041;-59
2022/08/17 03:34:40;;;;;;;34.67;25.73;;;19.00;99.90;;;;;;5025406;28;20132;-60
2022/08/17 03:37:06;;;;;;;71.13;26.58;;;19.00;99.90;;;;;;5026937;28;20408;-59
2022/08/17 03:39:32;;;;;;;37.47;25.35;;;18.90;99.90;;;;;;5025714;28;20041;-59
2022/08/17 03:42:17;;;;;;;41.75;23.98;;;18.90;99.90;;;;;;5026828;28;20053;-58
2022/08/17 03:44:48;;;;;;;32.70;22.80;;;18.90;99.90;;;;;;5026727;28;20076;-60
2022/08/17 03:58:11;;;;;;;41.53;20.55;;;18.80;99.90;;;;;;5025417;28;20148;-59
2022/08/17 04:00:41;;;;;;;36.60;19.30;;;18.80;99.90;;;;;;5024844;28;20052;-60
2022/08/17 04:03:06;;;;;;;132.85;19.52;;;18.70;99.90;;;;;;5027066;28;20446;-59
2022/08/17 04:05:32;;;;;;;142.88;21.30;;;18.70;99.90;;;;;;5025775;28;20096;-59
2022/08/17 04:07:58;;;;;;;40.67;18.45;;;18.70;99.90;;;;;;5022446;28;20045;-59
2022/08/17 04:10:25;;;;;;;16.33;14.60;;;18.60;99.90;;;;;;5022742;28;20063;-58
2022/08/17 04:12:53;;;;;;;21.42;16.67;;;18.60;99.90;;;;;;5022874;28;20095;-59
2022/08/17 04:15:21;;;;;;;25.08;17.40;;;18.60;99.90;;;;;;5021231;28;20376;-59
2022/08/17 04:17:47;;;;;;;17.55;15.63;;;18.60;99.90;;;;;;5022383;28;20133;-60
2022/08/17 04:20:15;;;;;;;30.77;16.15;;;18.50;99.90;;;;;;5022757;28;20076;-60
2022/08/17 04:23:03;;;;;;;24.55;16.30;;;18.60;99.90;;;;;;5022942;28;20583;-59
2022/08/17 04:25:32;;;;;;;33.20;15.70;;;18.50;99.90;;;;;;5021416;28;20156;-60
2022/08/17 04:27:59;;;;;;;64.05;16.90;;;18.50;99.90;;;;;;5023748;28;20423;-59
2022/08/17 04:30:30;;;;;;;53.67;17.10;;;18.50;99.90;;;;;;5022358;28;20435;-59
2022/08/17 04:32:58;;;;;;;55.13;15.07;;;18.40;99.90;;;;;;5021666;28;20503;-60
2022/08/17 04:35:27;;;;;;;19.02;14.82;;;18.40;99.90;;;;;;5021809;28;20045;-60
2022/08/17 04:37:53;;;;;;;18.60;15.32;;;18.40;99.90;;;;;;5022232;28;20038;-59
2022/08/17 04:43:12;;;;;;;20.55;16.63;;;18.40;99.90;;;;;;5022563;28;20492;-59
2022/08/17 04:45:50;;;;;;;23.33;18.02;;;18.40;99.90;;;;;;5021665;28;20049;-60
2022/08/17 04:48:16;;;;;;;32.08;18.35;;;18.40;99.90;;;;;;5022670;28;20057;-59
2022/08/17 04:50:45;;;;;;;21.52;19.20;;;18.40;99.90;;;;;;5020681;28;20401;-60
2022/08/17 04:53:11;;;;;;;31.38;21.75;;;18.40;99.90;;;;;;5021547;28;20132;-60
2022/08/17 04:55:37;;;;;;;27.77;21.13;;;18.40;99.90;;;;;;5020006;28;20369;-59
2022/08/17 04:58:04;;;;;;;21.83;19.48;;;18.40;99.90;;;;;;5020887;28;21128;-60
2022/08/17 05:00:30;;;;;;;54.00;21.48;;;18.40;99.90;;;;;;5021133;28;20048;-59
2022/08/17 05:02:56;;;;;;;24.30;20.17;;;18.40;99.90;;;;;;5022023;28;20042;-59
2022/08/17 05:05:33;;;;;;;25.50;20.73;;;18.40;99.90;;;;;;5021302;28;20045;-59
2022/08/17 05:08:01;;;;;;;67.53;23.98;;;18.50;99.90;;;;;;5021688;28;20049;-60
2022/08/17 05:10:29;;;;;;;38.83;22.42;;;18.40;99.90;;;;;;5020809;28;20106;-59
2022/08/17 05:13:07;;;;;;;80.13;22.52;;;18.50;99.90;;;;;;5036165;28;20045;-59
2022/08/17 05:15:35;;;;;;;39.63;21.95;;;18.50;99.90;;;;;;5019691;28;20053;-60
2022/08/17 05:18:02;;;;;;;42.50;23.25;;;18.50;99.90;;;;;;5021842;28;20594;-60
2022/08/17 05:20:29;;;;;;;29.60;22.50;;;18.50;99.90;;;;;;5019682;28;20762;-60
2022/08/17 05:22:58;;;;;;;74.78;25.38;;;18.50;99.90;;;;;;5036624;28;20168;-60
2022/08/17 05:25:27;;;;;;;33.67;22.30;;;18.50;99.90;;;;;;5020727;28;20045;-59
2022/08/17 05:27:54;;;;;;;37.05;23.48;;;18.50;99.90;;;;;;5022786;28;20080;-60
2022/08/17 05:30:21;;;;;;;39.13;21.75;;;18.50;99.90;;;;;;5021127;28;20616;-60
2022/08/17 05:33:06;;;;;;;28.58;21.05;;;18.50;99.90;;;;;;5021813;28;20052;-59
2022/08/17 05:35:34;;;;;;;47.33;23.10;;;18.50;99.90;;;;;;5020817;28;20474;-60
2022/08/17 05:38:00;;;;;;;27.00;23.08;;;18.60;99.90;;;;;;5020358;28;20048;-59
2022/08/17 05:40:27;;;;;;;26.13;22.52;;;18.60;99.90;;;;;;5020217;28;20053;-60
2022/08/17 05:43:18;;;;;;;30.90;23.45;;;18.60;99.90;;;;;;5020585;28;20037;-60
2022/08/17 05:46:11;;;;;;;24.67;21.77;;;18.60;99.90;;;;;;5021092;28;20108;-60
2022/08/17 05:48:41;;;;;;;30.90;23.73;;;18.60;99.90;;;;;;5021651;28;20088;-59
2022/08/17 05:51:43;;;;;;;29.88;23.50;;;18.60;99.90;;;;;;5020434;28;20083;-60
2022/08/17 05:54:53;;;;;;;27.50;22.50;;;18.60;99.90;;;;;;5020793;28;20433;-60
2022/08/17 05:57:19;;;;;;;29.42;24.42;;;18.70;99.90;;;;;;5003020;28;20468;-59
2022/08/17 06:00:09;;;;;;;28.83;24.00;;;18.60;99.90;;;;;;5021429;28;20077;-59
2022/08/17 06:02:50;;;;;;;36.85;27.85;;;18.70;99.90;;;;;;5020426;28;20049;-59
2022/08/17 06:05:27;;;;;;;29.83;24.60;;;18.70;99.90;;;;;;5020901;28;20057;-60
2022/08/17 06:08:16;;;;;;;34.33;27.48;;;18.80;99.90;;;;;;5019943;28;20106;-59
2022/08/17 06:11:00;;;;;;;41.53;30.67;;;18.80;99.90;;;;;;5020900;28;20041;-59
2022/08/17 06:13:46;;;;;;;41.20;31.45;;;18.90;99.90;;;;;;5020811;28;20521;-60
2022/08/17 06:16:21;;;;;;;41.35;32.58;;;19.00;99.90;;;;;;5018833;28;20137;-59
2022/08/17 06:18:54;;;;;;;46.30;33.83;;;19.00;99.90;;;;;;5022076;28;20045;-60
2022/08/17 06:21:21;;;;;;;48.70;34.60;;;19.00;99.90;;;;;;5021825;28;20182;-60
2022/08/17 06:23:49;;;;;;;51.08;37.50;;;19.10;99.90;;;;;;5035278;28;20052;-60
2022/08/17 06:26:21;;;;;;;50.17;36.05;;;19.10;99.90;;;;;;5020433;28;20088;-59
2022/08/17 06:28:53;;;;;;;58.13;35.65;;;19.20;99.90;;;;;;5018839;28;20080;-59
2022/08/17 06:31:26;;;;;;;41.35;33.97;;;19.20;99.90;;;;;;5019962;28;20514;-59
2022/08/17 06:33:54;;;;;;;51.47;35.20;;;19.30;99.90;;;;;;5020812;28;20534;-59
2022/08/17 06:36:47;;;;;;;47.88;34.47;;;19.30;99.90;;;;;;5020658;28;20045;-59
2022/08/17 06:39:25;;;;;;;;;;;19.30;99.90;;;;;;5020515;28;20045;-59
2022/08/17 06:42:12;;;;;;;52.53;34.83;;;19.40;99.90;;;;;;5021433;28;20462;-59
2022/08/17 06:45:14;;;;;;;47.60;35.22;;;19.40;99.90;;;;;;5021249;28;20049;-59
2022/08/17 06:47:53;;;;;;;50.85;34.83;;;19.50;99.90;;;;;;5013015;28;20609;-59
2022/08/17 06:50:34;;;;;;;51.95;34.75;;;19.50;99.90;;;;;;5020282;28;20126;-59
2022/08/17 06:53:09;;;;;;;52.47;37.45;;;19.50;99.90;;;;;;5019813;28;20451;-58
2022/08/17 06:56:09;;;;;;;50.08;35.72;;;19.60;99.90;;;;;;5019989;28;20797;-58
2022/08/17 06:58:38;;;;;;;53.33;35.97;;;19.60;99.90;;;;;;5020085;28;20038;-58
2022/08/17 07:01:11;;;;;;;53.15;36.85;;;19.60;99.90;;;;;;5020714;28;20068;-58
2022/08/17 07:03:58;;;;;;;48.78;34.60;;;19.60;99.90;;;;;;5019939;28;20037;-59
2022/08/17 07:06:33;;;;;;;51.28;36.75;;;19.70;99.90;;;;;;5021190;28;20220;-59
2022/08/17 07:09:07;;;;;;;62.30;40.13;;;19.70;99.90;;;;;;5018853;28;20064;-59
2022/08/17 07:11:55;;;;;;;58.42;39.90;;;19.80;99.90;;;;;;5019154;28;20488;-59
2022/08/17 07:14:37;;;;;;;56.95;37.95;;;19.90;99.90;;;;;;5018225;28;20049;-59
2022/08/17 07:17:13;;;;;;;55.03;39.47;;;19.90;99.90;;;;;;5020340;28;20120;-59
2022/08/17 07:19:44;;;;;;;53.25;37.65;;;20.00;99.90;;;;;;5019828;28;20376;-59
2022/08/17 07:22:19;;;;;;;55.58;39.35;;;20.00;99.90;;;;;;5019629;28;20041;-59
2022/08/17 07:24:50;;;;;;;61.35;38.92;;;20.10;99.90;;;;;;5021156;28;20061;-59
2022/08/17 07:27:41;;;;;;;57.65;39.92;;;20.10;99.90;;;;;;5020972;28;20045;-58
2022/08/17 07:30:33;;;;;;;58.63;41.13;;;20.10;99.90;;;;;;5018811;28;20624;-59
2022/08/17 07:33:12;;;;;;;64.47;42.20;;;20.20;99.90;;;;;;5012843;28;20053;-59
2022/08/17 07:35:40;;;;;;;67.25;42.20;;;20.40;99.90;;;;;;5018982;28;20057;-59
2022/08/17 07:38:09;;;;;;;62.03;43.22;;;20.40;99.90;;;;;;5018938;28;20095;-58
2022/08/17 07:41:01;;;;;;;64.90;44.33;;;20.40;99.90;;;;;;5020373;28;20050;-59
2022/08/17 07:43:35;;;;;;;70.30;43.87;;;20.50;99.90;;;;;;5022753;28;20120;-59
2022/08/17 07:49:06;;;;;;;69.40;43.15;;;20.50;99.90;;;;;;5023106;28;20051;-59
2022/08/17 07:51:43;;;;;;;61.97;42.25;;;20.50;99.90;;;;;;5023848;28;20061;-59
2022/08/17 07:54:15;;;;;;;69.90;44.15;;;20.60;99.90;;;;;;5023806;28;20093;-59
2022/08/17 07:56:46;;;;;;;72.32;45.83;;;20.60;99.90;;;;;;5021360;28;20045;-60
2022/08/17 07:59:19;;;;;;;66.68;44.33;;;20.70;99.90;;;;;;5022911;28;20073;-59
2022/08/17 08:02:03;;;;;;;73.97;47.60;;;20.70;99.90;;;;;;5024691;28;20388;-59
2022/08/17 08:04:36;;;;;;;92.88;47.92;;;20.80;99.90;;;;;;5022225;28;20437;-58
2022/08/17 08:07:16;;;;;;;82.80;47.42;;;20.90;99.90;;;;;;5023086;28;20056;-60
2022/08/17 08:09:44;;;;;;;65.75;44.53;;;21.00;99.90;;;;;;5025342;28;20041;-59
2022/08/17 08:12:36;;;;;;;69.32;43.63;;;21.10;99.90;;;;;;5023194;28;20065;-60
2022/08/17 08:15:17;;;;;;;65.63;44.63;;;21.30;99.90;;;;;;5023756;28;20050;-60
2022/08/17 08:17:58;;;;;;;62.42;44.13;;;21.40;99.90;;;;;;5022780;28;20056;-60
2022/08/17 08:20:48;;;;;;;56.30;41.15;;;21.60;99.90;;;;;;5021703;28;20045;-59
2022/08/17 08:23:35;;;;;;;61.80;43.28;;;21.70;99.90;;;;;;5022010;28;20073;-60
2022/08/17 08:26:19;;;;;;;59.42;43.00;;;21.80;99.90;;;;;;5022734;28;20558;-59
2022/08/17 08:29:07;;;;;;;56.13;41.22;;;21.80;99.90;;;;;;5022767;28;20041;-59
2022/08/17 08:31:42;;;;;;;60.97;41.50;;;21.80;99.90;;;;;;5022796;28;20053;-59
2022/08/17 08:34:23;;;;;;;60.80;41.67;;;21.80;99.90;;;;;;5006941;28;20055;-59
2022/08/17 08:36:56;;;;;;;57.88;43.78;;;21.80;99.90;;;;;;5022806;28;20046;-59
2022/08/17 08:39:45;;;;;;;57.80;42.67;;;21.80;99.90;;;;;;5021975;28;20079;-60
2022/08/17 08:42:34;;;;;;;59.17;44.15;;;21.80;99.90;;;;;;5020447;28;20144;-59
2022/08/17 08:45:21;;;;;;;51.33;40.00;;;21.80;99.90;;;;;;5022157;28;20041;-60
2022/08/17 08:48:04;;;;;;;49.67;37.15;;;21.90;99.90;;;;;;5020923;28;20054;-60
2022/08/17 08:50:47;;;;;;;45.88;37.30;;;21.90;99.90;;;;;;5022272;28;20068;-59
2022/08/17 08:53:13;;;;;;;49.15;36.13;;;21.90;99.90;;;;;;5022238;28;20049;-60
2022/08/17 08:55:57;;;;;;;49.40;36.30;;;22.00;99.90;;;;;;5036360;28;20056;-60
2022/08/17 08:59:10;;;;;;;49.53;36.50;;;22.10;99.90;;;;;;5022508;28;20042;-60
2022/08/17 09:01:59;;;;;;;48.75;35.30;;;22.10;99.90;;;;;;4980703;28;20382;-60
2022/08/17 09:04:48;;;;;;;50.40;36.63;;;22.10;99.90;;;;;;4980954;28;20594;-60
2022/08/17 09:07:26;;;;;;;40.70;33.33;;;22.20;99.90;;;;;;5024168;28;20641;-60
2022/08/17 09:10:03;;;;;;;39.95;32.03;;;22.20;99.90;;;;;;5022690;28;20152;-60
2022/08/17 09:12:48;;;;;;;44.10;33.42;;;22.20;99.90;;;;;;5005055;28;20110;-60
2022/08/17 09:15:43;;;;;;;44.53;33.58;;;22.30;99.90;;;;;;5020175;28;20053;-60
2022/08/17 09:18:26;;;;;;;46.38;34.67;;;22.30;99.90;;;;;;5013592;28;20056;-60
2022/08/17 09:20:57;;;;;;;41.10;33.30;;;22.40;99.90;;;;;;5021003;28;20072;-59
2022/08/17 09:23:43;;;;;;;41.92;33.08;;;22.40;99.90;;;;;;5020707;28;20045;-58
2022/08/17 09:26:22;;;;;;;40.83;32.33;;;22.40;99.90;;;;;;5021665;28;20491;-60
2022/08/17 09:28:54;;;;;;;42.47;32.92;;;22.40;99.90;;;;;;5021328;28;20034;-60
2022/08/17 09:31:34;;;;;;;47.47;32.47;;;22.40;99.90;;;;;;5021555;28;20047;-59
2022/08/17 09:34:14;;;;;;;39.45;31.77;;;22.60;99.90;;;;;;5022015;28;20407;-60
2022/08/17 09:36:53;;;;;;;42.55;32.40;;;22.80;99.90;;;;;;5020356;28;20041;-60
2022/08/17 09:39:26;;;;;;;37.85;32.00;;;23.20;99.90;;;;;;5021565;28;20068;-60
2022/08/17 09:42:17;;;;;;;36.35;30.73;;;23.50;99.90;;;;;;5019641;28;20724;-60
2022/08/17 09:45:14;;;;;;;38.08;31.17;;;23.70;99.90;;;;;;5020532;28;20049;-60
2022/08/17 09:47:51;;;;;;;43.10;30.30;;;23.90;99.90;;;;;;5021455;28;20045;-60
2022/08/17 09:50:23;;;;;;;70.32;30.35;;;24.00;99.90;;;;;;5020834;28;20587;-60
2022/08/17 09:52:55;;;;;;;38.15;30.50;;;24.10;99.90;;;;;;5019049;28;20049;-60
2022/08/17 09:55:25;;;;;;;39.00;31.17;;;24.10;99.90;;;;;;5021355;28;20480;-60
2022/08/17 09:58:10;;;;;;;37.15;29.15;;;23.90;99.90;;;;;;5020290;28;20041;-60
2022/08/17 10:00:42;;;;;;;40.00;28.73;;;23.80;99.90;;;;;;5021949;28;20067;-60
2022/08/17 10:03:24;;;;;;;37.63;30.00;;;23.70;99.90;;;;;;5020435;28;20053;-60
2022/08/17 10:06:13;;;;;;;37.88;29.77;;;23.60;99.90;;;;;;5019480;28;20249;-60
2022/08/17 10:08:52;;;;;;;31.33;26.15;;;23.60;99.90;;;;;;5020105;28;20106;-60
2022/08/17 10:12:22;;;;;;;30.83;26.58;;;23.60;99.90;;;;;;5020382;28;21135;-60
2022/08/17 10:15:00;;;;;;;35.50;26.08;;;23.60;99.90;;;;;;4987378;28;20523;-60
2022/08/17 10:17:55;;;;;;;30.98;26.08;;;23.50;99.90;;;;;;5018701;28;20060;-60
2022/08/17 10:20:39;;;;;;;29.05;23.80;;;23.40;99.90;;;;;;5034223;28;20049;-60
2022/08/17 10:26:12;;;;;;;32.38;26.15;;;23.20;99.90;;;;;;5019941;28;20097;-60
2022/08/17 10:28:44;;;;;;;33.03;26.40;;;23.10;99.90;;;;;;5020446;28;20760;-60
2022/08/17 10:31:18;;;;;;;31.83;25.40;;;23.10;99.90;;;;;;5020393;28;20052;-60
2022/08/17 10:33:53;;;;;;;27.85;23.38;;;23.00;99.90;;;;;;5021496;28;20064;-61
2022/08/17 10:36:36;;;;;;;27.75;23.05;;;23.00;99.90;;;;;;5021831;28;20045;-59
2022/08/17 10:39:42;;;;;;;25.48;22.63;;;23.10;99.90;;;;;;5022400;28;20064;-60
2022/08/17 10:42:28;;;;;;;29.08;22.55;;;23.10;99.90;;;;;;5019424;28;20077;-61
2022/08/17 10:45:13;;;;;;;26.50;23.63;;;23.20;99.90;;;;;;5018630;28;20048;-60
2022/08/17 10:48:02;;;;;;;27.90;23.25;;;23.20;99.90;;;;;;5020116;28;20054;-60
2022/08/17 10:50:54;;;;;;;30.83;24.20;;;23.20;99.90;;;;;;5019085;28;20118;-60
2022/08/17 10:53:32;;;;;;;76.90;26.07;;;23.40;99.90;;;;;;5018772;28;20103;-60
2022/08/17 10:56:38;;;;;;;28.48;22.60;;;23.40;99.90;;;;;;5021033;28;20713;-60
2022/08/17 10:59:06;;;;;;;24.00;21.52;;;23.40;99.90;;;;;;5019322;28;20033;-60
2022/08/17 11:01:36;;;;;;;39.88;21.83;;;23.50;99.90;;;;;;5019042;28;20041;-59
2022/08/17 11:04:17;;;;;;;26.88;23.00;;;23.60;99.90;;;;;;5019680;28;20092;-60
2022/08/17 11:07:07;;;;;;;27.40;22.27;;;23.70;99.90;;;;;;5021610;28;20493;-60
2022/08/17 11:09:42;;;;;;;24.80;21.35;;;23.80;99.90;;;;;;5020183;28;20060;-60
2022/08/17 11:12:36;;;;;;;27.83;23.20;;;23.80;99.90;;;;;;5019972;28;20053;-60
2022/08/17 11:15:14;;;;;;;23.88;20.98;;;23.90;99.90;;;;;;5019856;28;20381;-60
2022/08/17 11:17:42;;;;;;;24.90;18.80;;;24.00;99.90;;;;;;5020157;28;20231;-61
2022/08/17 11:20:38;;;;;;;19.90;17.80;;;24.00;99.90;;;;;;5023412;28;20087;-59
2022/08/17 11:23:03;;;;;;;21.55;16.58;;;24.10;99.90;;;;;;5022038;28;20095;-60
2022/08/17 11:25:39;;;;;;;20.67;16.08;;;24.20;99.90;;;;;;5023543;28;20045;-61
2022/08/17 11:28:14;;;;;;;21.17;15.80;;;24.30;99.90;;;;;;5021959;28;20045;-60
2022/08/17 11:30:40;;;;;;;19.38;15.32;;;24.40;99.90;;;;;;5023896;28;20053;-60
2022/08/17 11:33:27;;;;;;;17.55;14.75;;;24.40;99.90;;;;;;5023006;28;20045;-60
2022/08/17 11:35:59;;;;;;;19.17;13.77;;;24.40;99.90;;;;;;5020683;28;20049;-61
2022/08/17 11:38:41;;;;;;;18.23;14.60;;;24.40;99.90;;;;;;5023203;28;20178;-60
2022/08/17 11:41:31;;;;;;;17.37;14.10;;;24.40;99.90;;;;;;5021742;28;20737;-60
2022/08/17 11:44:31;;;;;;;17.67;14.48;;;24.40;99.90;;;;;;5020548;28;20305;-60
2022/08/17 11:53:02;;;;;;;24.73;14.07;;;24.50;99.90;;;;;;5021623;28;20110;-60
2022/08/17 11:55:31;;;;;;;16.48;12.60;;;24.70;99.90;;;;;;5023130;28;20046;-61
2022/08/17 11:58:22;;;;;;;18.55;12.35;;;24.90;99.90;;;;;;5023835;28;20041;-60
2022/08/17 12:00:54;;;;;;;14.23;11.70;;;25.00;99.90;;;;;;5022298;28;20081;-61
2022/08/17 12:03:32;;;;;;;20.40;13.82;;;25.00;99.80;;;;;;5023894;28;20133;-60
2022/08/17 12:06:16;;;;;;;19.33;12.65;;;24.90;99.50;;;;;;5023124;28;20141;-60
2022/08/17 12:08:50;;;;;;;16.20;11.95;;;24.80;99.50;;;;;;5023759;28;20427;-60
2022/08/17 12:11:24;;;;;;;15.07;12.63;;;24.60;99.50;;;;;;5038127;28;20053;-60
2022/08/17 12:13:55;;;;;;;14.63;11.35;;;24.60;99.70;;;;;;5023679;28;20046;-61
2022/08/17 12:16:21;;;;;;;18.38;12.32;;;24.50;99.50;;;;;;5022354;28;20049;-60
2022/08/17 12:19:18;;;;;;;17.23;11.65;;;24.50;99.90;;;;;;5022118;28;20091;-60
2022/08/17 12:22:02;;;;;;;16.98;11.70;;;24.50;99.90;;;;;;5038062;28;20049;-60
2022/08/17 12:24:34;;;;;;;12.10;9.75;;;24.60;99.50;;;;;;5037906;28;20045;-60
2022/08/17 12:27:03;;;;;;;12.93;8.75;;;24.50;99.10;;;;;;5023718;28;20045;-60
2022/08/17 12:29:31;;;;;;;18.20;12.25;;;24.60;98.70;;;;;;5023376;28;20399;-60
2022/08/17 12:31:59;;;;;;;15.23;11.55;;;24.60;98.60;;;;;;5023890;28;20576;-61
2022/08/17 12:34:28;;;;;;;17.52;12.48;;;24.60;98.70;;;;;;5022206;28;20127;-61
2022/08/17 12:36:59;;;;;;;19.30;12.68;;;24.60;98.40;;;;;;5022578;28;20150;-59
2022/08/17 12:39:26;;;;;;;18.67;13.38;;;24.60;97.90;;;;;;5004825;28;20072;-60
2022/08/17 12:41:57;;;;;;;17.98;12.30;;;24.60;98.10;;;;;;5022177;28;20034;-60
2022/08/17 12:44:29;;;;;;;17.67;12.18;;;24.60;98.10;;;;;;5020644;28;20488;-61
2022/08/17 12:47:24;;;;;;;14.15;11.05;;;24.60;98.10;;;;;;5022165;28;20049;-60
2022/08/17 12:49:52;;;;;;;15.63;10.48;;;24.60;98.20;;;;;;5009115;28;20114;-60
2022/08/17 12:52:18;;;;;;;18.50;11.30;;;24.60;97.80;;;;;;5023184;28;20053;-61
2022/08/17 12:55:00;;;;;;;13.35;11.23;;;24.60;97.80;;;;;;5021397;28;20099;-60
2022/08/17 12:57:44;;;;;;;15.32;10.70;;;24.50;98.00;;;;;;5020907;28;20069;-60
2022/08/17 13:00:16;;;;;;;11.75;9.57;;;24.50;98.10;;;;;;5019348;28;20506;-61
2022/08/17 13:02:47;;;;;;;17.83;11.02;;;24.40;98.10;;;;;;5037298;28;20041;-60
2022/08/17 13:05:35;;;;;;;15.52;10.80;;;24.40;98.20;;;;;;5019766;28;20554;-61
2022/08/17 13:08:25;;;;;;;15.48;11.65;;;24.30;98.40;;;;;;5022611;28;20046;-61
2022/08/17 13:10:57;;;;;;;13.35;10.77;;;24.20;98.60;;;;;;5013528;28;20081;-61
2022/08/17 13:13:33;;;;;;;19.10;11.43;;;24.20;98.70;;;;;;5023313;28;20148;-61
2022/08/17 13:16:03;;;;;;;15.20;11.50;;;24.10;98.80;;;;;;5022094;28;20831;-60
2022/08/17 13:18:37;;;;;;;23.63;12.05;;;24.10;98.90;;;;;;5021817;28;20041;-60
2022/08/17 13:21:29;;;;;;;15.35;11.10;;;24.10;98.90;;;;;;5020810;28;20037;-60
2022/08/17 13:23:56;;;;;;;15.07;11.70;;;24.10;99.10;;;;;;5021934;28;20068;-61
2022/08/17 13:26:46;;;;;;;16.05;11.02;;;24.10;99.00;;;;;;5021702;28;20076;-60
2022/08/17 13:29:32;;;;;;;15.00;9.90;;;24.20;98.90;;;;;;5022498;28;20045;-61
2022/08/17 13:32:07;;;;;;;12.18;10.18;;;24.20;98.80;;;;;;5021839;28;20052;-60
2022/08/17 13:34:45;;;;;;;15.10;10.48;;;24.20;98.90;;;;;;5020165;28;20062;-60